Safmarine Nimba — WSNU — position and weather

sailwx.info

Track history (hours):
 
Tides and Currents Weather Stations Pressure Air Temp Water Temp Dewpoint Dewpoint Depression Visibility Wind Speed Wind Dir Waves Ship Positions

Safmarine Nimba

Owner: Maersk Line, Limited, Norfolk, VA. More information available from US FCC via Universal Licensing System and Coast Guard Vessel Documentation Center.

Last reported at 2017-Dec-03 08:46 UTC. Time now 2017-Dec-12 17:49 UTC.
Position N 32°60' E 033°29'.
Warning: this ship's position is 9 days out of date.

Length 195 m; draft 10 m.

Type: Ship (hazmat cat A). MMSI: 369248000.

Date/timePositionNaut miles runAvg speedWind from/ knotsBaromVisibWave heightAir tempDewpointWater temp
2017-Dec-03 08:46N 32°60' E 033°29'3012.3
2017-Dec-03 06:17N 32°33' E 033°13'512.5
2017-Dec-03 05:55N 32°28' E 033°11'2512.3
2017-Dec-03 03:54N 32°06' E 032°57'512.0
2017-Dec-03 03:30N 32°02' E 032°54'612.1
2017-Dec-03 03:00N 31°57' E 032°51'612.1
2017-Dec-03 02:30N 31°52' E 032°48'612.2
2017-Dec-03 02:00N 31°46' E 032°45'1111.8
2017-Dec-03 01:05N 31°40' E 032°34'211.7
2017-Dec-03 00:56N 31°39' E 032°32'1410.0
2017-Dec-02 23:30N 31°26' E 032°25'612.1
2017-Dec-02 22:59N 31°20' E 032°23'711.0
2017-Dec-02 22:20N 31°13' E 032°21'1 4.3
2017-Dec-02 22:01N 31°12' E 032°21'0 0.5
2017-Dec-02 21:18N 31°12' E 032°21'0 0.0
2017-Dec-02 20:57N 31°12' E 032°21'0 0.0
2017-Dec-02 20:30N 31°12' E 032°21'0 0.0
2017-Dec-02 18:21N 31°12' E 032°21'0 0.0
2017-Dec-02 17:54N 31°12' E 032°21'0 0.0
2017-Dec-02 16:36N 31°12' E 032°21'  
Track history (hours):
 
Tides and Currents Weather Stations Pressure Air Temp Water Temp Dewpoint Dewpoint Depression Visibility Wind Speed Wind Dir Waves Ship Positions

Safmarine Nimba

Owner: Maersk Line, Limited, Norfolk, VA. More information available from US FCC via Universal Licensing System and Coast Guard Vessel Documentation Center.

Last reported at 2017-Dec-03 08:46 UTC. Time now 2017-Dec-12 17:49 UTC.
Position N 32°60' E 033°29'.
Warning: this ship's position is 9 days out of date.

Length 195 m; draft 10 m.

Type: Ship (hazmat cat A). MMSI: 369248000.

Date/timePositionNaut miles runAvg speedWind from/ knotsBaromVisibWave heightAir tempDewpointWater temp
2017-Dec-03 08:46N 32°60' E 033°29'3012.3
2017-Dec-03 06:17N 32°33' E 033°13'512.5
2017-Dec-03 05:55N 32°28' E 033°11'2512.3
2017-Dec-03 03:54N 32°06' E 032°57'512.0
2017-Dec-03 03:30N 32°02' E 032°54'612.1
2017-Dec-03 03:00N 31°57' E 032°51'612.1
2017-Dec-03 02:30N 31°52' E 032°48'612.2
2017-Dec-03 02:00N 31°46' E 032°45'1111.8
2017-Dec-03 01:05N 31°40' E 032°34'211.7
2017-Dec-03 00:56N 31°39' E 032°32'1410.0
2017-Dec-02 23:30N 31°26' E 032°25'612.1
2017-Dec-02 22:59N 31°20' E 032°23'711.0
2017-Dec-02 22:20N 31°13' E 032°21'1 4.3
2017-Dec-02 22:01N 31°12' E 032°21'0 0.5
2017-Dec-02 21:18N 31°12' E 032°21'0 0.0
2017-Dec-02 20:57N 31°12' E 032°21'0 0.0
2017-Dec-02 20:30N 31°12' E 032°21'0 0.0
2017-Dec-02 18:21N 31°12' E 032°21'0 0.0
2017-Dec-02 17:54N 31°12' E 032°21'0 0.0
2017-Dec-02 16:36N 31°12' E 032°21'  

Dump ship's entire track history